Time;durP1;ratioP1;P1;durP2;ratioP2;P2;SDS_P1;SDS_P2;PMS_P1;PMS_P2;Temp;Humidity;BMP_temperature;BMP_pressure;BME280_temperature;BME280_humidity;BME280_pressure;Samples;Min_cycle;Max_cycle;Signal;HPM_P1;HPM_P2
2023/11/06 00:01:12;;;;;;;14.63;9.60;;;;;;;10.10;100.00;98791.34;5094262;28;20044;-44
2023/11/06 00:03:40;;;;;;;15.27;10.50;;;;;;;10.08;100.00;98803.94;5094354;28;20050;-43
2023/11/06 00:06:11;;;;;;;14.13;10.48;;;;;;;10.10;100.00;98807.31;5094157;28;20773;-43
2023/11/06 00:08:40;;;;;;;15.25;10.85;;;;;;;10.08;100.00;98811.94;5094211;28;20040;-44
2023/11/06 00:11:08;;;;;;;15.10;10.60;;;;;;;10.14;100.00;98832.75;5094028;28;20098;-48
2023/11/06 00:13:40;;;;;;;16.65;10.93;;;;;;;10.20;100.00;98824.25;5093716;28;20068;-43
2023/11/06 00:16:08;;;;;;;15.80;10.65;;;;;;;10.19;100.00;98830.56;5094093;28;20059;-45
2023/11/06 00:18:50;;;;;;;15.02;11.02;;;;;;;10.07;100.00;98828.88;5093787;28;20501;-44
2023/11/06 00:21:21;;;;;;;14.80;10.85;;;;;;;10.10;100.00;98830.44;5093855;28;20120;-44
2023/11/06 00:23:53;;;;;;;15.77;11.13;;;;;;;10.13;100.00;98823.03;5093386;28;20579;-43
2023/11/06 00:26:22;;;;;;;16.85;10.77;;;;;;;10.07;100.00;98823.56;5093619;28;20044;-44
2023/11/06 00:28:51;;;;;;;16.55;11.43;;;;;;;9.96;100.00;98836.91;5093578;28;20586;-43
2023/11/06 00:31:19;;;;;;;16.25;12.02;;;;;;;9.80;100.00;98836.41;5093658;28;20054;-44
2023/11/06 00:33:48;;;;;;;18.35;11.90;;;;;;;9.80;100.00;98849.72;5093471;28;20055;-42
2023/11/06 00:36:22;;;;;;;19.83;12.13;;;;;;;9.54;100.00;98857.94;5092710;28;20385;-43
2023/11/06 00:38:51;;;;;;;17.25;11.32;;;;;;;9.56;100.00;98861.34;5093147;28;20463;-44
2023/11/06 00:41:20;;;;;;;18.02;12.30;;;;;;;9.49;100.00;98859.28;5093505;28;20044;-43
2023/11/06 00:43:48;;;;;;;17.08;11.57;;;;;;;9.53;100.00;98866.91;5093648;28;20051;-44
2023/11/06 00:46:16;;;;;;;18.45;12.13;;;;;;;9.42;100.00;98873.06;5093411;28;20055;-44
2023/11/06 00:48:44;;;;;;;16.38;11.68;;;;;;;9.51;100.00;98868.84;5093228;28;20098;-43
2023/11/06 00:51:13;;;;;;;20.13;12.25;;;;;;;9.51;100.00;98874.16;5092942;28;20050;-44
2023/11/06 00:53:43;;;;;;;18.08;12.57;;;;;;;9.46;100.00;98873.69;5092764;28;20109;-44
2023/11/06 00:56:11;;;;;;;18.25;12.57;;;;;;;9.33;100.00;98871.09;5092989;28;20398;-45
2023/11/06 00:58:40;;;;;;;17.38;11.88;;;;;;;9.48;100.00;98890.38;5092822;28;20508;-43
2023/11/06 01:01:08;;;;;;;18.30;11.88;;;;;;;9.64;100.00;98901.50;5093279;28;20058;-46
2023/11/06 01:03:36;;;;;;;17.35;11.82;;;;;;;9.63;100.00;98915.78;5092887;28;20131;-44
2023/11/06 01:06:05;;;;;;;15.57;11.48;;;;;;;9.70;100.00;98909.03;5092761;28;20052;-44
2023/11/06 01:08:33;;;;;;;16.48;11.90;;;;;;;9.72;100.00;98917.75;5093028;28;20059;-44
2023/11/06 01:11:03;;;;;;;16.88;10.75;;;;;;;9.75;100.00;98914.03;5092795;28;20048;-44
2023/11/06 01:13:31;;;;;;;17.85;11.75;;;;;;;9.65;100.00;98923.66;5091622;28;20044;-44
2023/11/06 01:16:00;;;;;;;17.13;11.75;;;;;;;9.73;100.00;98921.25;5092720;28;20127;-44
2023/11/06 01:18:29;;;;;;;13.32;10.05;;;;;;;9.61;100.00;98923.06;5092518;28;20135;-43
2023/11/06 01:20:58;;;;;;;15.43;10.25;;;;;;;9.71;100.00;98933.84;5092937;28;20043;-45
2023/11/06 01:23:26;;;;;;;14.57;9.52;;;;;;;9.74;100.00;98933.59;5092603;28;20135;-45
2023/11/06 01:25:56;;;;;;;12.52;9.27;;;;;;;9.83;100.00;98932.03;5092586;28;20135;-44
2023/11/06 01:28:25;;;;;;;14.60;9.30;;;;;;;9.92;100.00;98944.63;5092646;28;20048;-45
2023/11/06 01:30:53;;;;;;;12.73;9.02;;;;;;;9.95;100.00;98949.75;5092331;28;20105;-44
2023/11/06 01:33:22;;;;;;;11.75;7.57;;;;;;;9.92;100.00;98956.13;5092358;28;20139;-44
2023/11/06 01:35:51;;;;;;;11.27;7.57;;;;;;;9.97;100.00;98967.28;5091272;28;20052;-43
2023/11/06 01:38:19;;;;;;;9.75;6.22;;;;;;;9.90;100.00;98959.91;5092423;28;20451;-45
2023/11/06 01:40:48;;;;;;;5.78;3.15;;;;;;;10.15;100.00;98981.00;5092340;28;20097;-46
2023/11/06 01:43:24;;;;;;;6.88;4.43;;;;;;;10.27;100.00;98980.06;5092224;28;20112;-44
2023/11/06 01:45:55;;;;;;;8.95;5.78;;;;;;;10.31;100.00;98976.16;5091847;28;20185;-42
2023/11/06 01:48:28;;;;;;;7.18;4.80;;;;;;;10.37;100.00;98984.66;5091165;28;20054;-43
2023/11/06 01:50:58;;;;;;;5.47;3.33;;;;;;;10.46;100.00;98991.94;5092186;28;20080;-44
2023/11/06 01:53:29;;;;;;;6.00;3.42;;;;;;;10.58;100.00;98994.47;5091946;28;20245;-43
2023/11/06 01:55:59;;;;;;;3.40;1.85;;;;;;;10.78;100.00;99000.84;5091869;28;20052;-43
2023/11/06 01:58:29;;;;;;;3.47;1.80;;;;;;;11.01;100.00;99016.84;5092104;28;20044;-43
2023/11/06 02:01:00;;;;;;;3.05;1.77;;;;;;;11.16;100.00;99019.06;5092102;28;20043;-45
2023/11/06 02:03:32;;;;;;;3.75;1.60;;;;;;;11.22;100.00;99015.06;5091906;28;20040;-43
2023/11/06 02:06:02;;;;;;;5.45;1.40;;;;;;;11.24;100.00;99021.13;5091988;28;20134;-43
2023/11/06 02:08:31;;;;;;;2.53;1.10;;;;;;;11.35;100.00;99022.91;5091635;28;20086;-45
2023/11/06 02:11:02;;;;;;;1.98;0.98;;;;;;;11.41;100.00;99033.09;5091660;28;20135;-44
2023/11/06 02:13:30;;;;;;;6.13;0.90;;;;;;;11.47;100.00;99041.41;5091878;28;20052;-44
2023/11/06 02:16:01;;;;;;;1.02;0.70;;;;;;;11.55;100.00;99040.78;5091870;28;20056;-44
2023/11/06 02:18:29;;;;;;;2.40;0.90;;;;;;;11.62;100.00;99035.78;5091682;28;20506;-45
2023/11/06 02:20:58;;;;;;;2.97;1.10;;;;;;;11.60;100.00;99033.25;5091587;28;20059;-42
2023/11/06 02:23:31;;;;;;;1.55;0.70;;;;;;;11.60;100.00;99035.06;5091260;28;20056;-44
2023/11/06 02:25:59;;;;;;;3.10;0.77;;;;;;;11.69;100.00;99045.00;5091483;28;20087;-43
2023/11/06 02:28:27;;;;;;;0.93;0.50;;;;;;;11.72;100.00;99050.91;5091480;28;20127;-47
2023/11/06 02:30:56;;;;;;;1.73;0.70;;;;;;;11.75;100.00;99058.66;5091595;28;20052;-42
2023/11/06 02:33:27;;;;;;;1.77;0.80;;;;;;;11.77;100.00;99058.53;5091356;28;20507;-43
2023/11/06 02:35:55;;;;;;;1.90;0.82;;;;;;;11.78;100.00;99060.25;5091405;28;20481;-43
2023/11/06 02:38:24;;;;;;;1.08;0.70;;;;;;;11.76;100.00;99062.19;5091541;28;20048;-43
2023/11/06 02:40:54;;;;;;;1.88;0.80;;;;;;;11.80;100.00;99068.16;5091663;28;20075;-44
2023/11/06 02:43:22;;;;;;;3.15;1.02;;;;;;;11.81;100.00;99068.03;5091528;28;20045;-44
2023/11/06 02:45:51;;;;;;;2.13;0.80;;;;;;;11.88;100.00;99071.88;5091533;28;20458;-43
2023/11/06 02:48:19;;;;;;;1.70;0.80;;;;;;;11.98;100.00;99070.13;5091356;28;20173;-43
2023/11/06 02:50:48;;;;;;;3.03;0.95;;;;;;;12.01;100.00;99083.22;5091445;28;20536;-43
2023/11/06 02:53:17;;;;;;;1.70;0.70;;;;;;;11.94;100.00;99098.06;5091246;28;20052;-43
2023/11/06 02:55:45;;;;;;;1.30;0.57;;;;;;;12.02;100.00;99111.66;5091458;28;20439;-43
2023/11/06 02:58:15;;;;;;;2.05;0.60;;;;;;;11.99;100.00;99127.09;5092242;28;20044;-44
2023/11/06 03:00:43;;;;;;;1.58;0.52;;;;;;;11.97;100.00;99129.06;5095444;28;20056;-45
2023/11/06 03:03:11;;;;;;;1.80;1.00;;;;;;;11.95;100.00;99137.19;5095064;28;20504;-45
2023/11/06 03:05:39;;;;;;;2.70;0.70;;;;;;;11.98;100.00;99136.94;5095243;28;20128;-44
2023/11/06 03:08:08;;;;;;;1.80;0.45;;;;;;;11.94;100.00;99130.16;5095266;28;20473;-45
2023/11/06 03:10:36;;;;;;;1.73;0.70;;;;;;;12.01;100.00;99131.34;5095114;28;20048;-44
2023/11/06 03:13:07;;;;;;;3.90;0.98;;;;;;;12.06;100.00;99135.44;5094912;28;20054;-44
2023/11/06 03:15:37;;;;;;;1.42;0.57;;;;;;;12.06;100.00;99143.44;5094983;28;20048;-44
2023/11/06 03:18:05;;;;;;;1.67;0.73;;;;;;;12.08;100.00;99149.53;5095287;28;20051;-42
2023/11/06 03:20:34;;;;;;;4.28;0.80;;;;;;;12.10;100.00;99150.25;5094877;28;20545;-42
2023/11/06 03:23:02;;;;;;;1.88;0.65;;;;;;;12.10;100.00;99150.25;5094970;28;20052;-44
2023/11/06 03:25:31;;;;;;;1.73;0.70;;;;;;;12.15;100.00;99143.53;5095437;28;20477;-43
2023/11/06 03:28:00;;;;;;;1.17;0.70;;;;;;;12.25;100.00;99143.59;5095676;28;20055;-43
2023/11/06 03:30:28;;;;;;;1.45;0.70;;;;;;;12.22;100.00;99147.38;5096098;28;20564;-43
2023/11/06 03:32:58;;;;;;;2.17;0.80;;;;;;;12.28;100.00;99148.72;5095242;28;20040;-44
2023/11/06 03:35:26;;;;;;;2.47;0.60;;;;;;;12.45;100.00;99144.56;5094965;28;20055;-43
2023/11/06 03:37:54;;;;;;;2.88;0.85;;;;;;;12.43;100.00;99136.69;5094771;28;20113;-42
2023/11/06 03:40:22;;;;;;;2.00;0.70;;;;;;;12.44;100.00;99141.06;5094843;28;20431;-44
2023/11/06 03:42:51;;;;;;;5.18;0.80;;;;;;;12.48;100.00;99142.50;5094480;28;20052;-44
2023/11/06 03:45:19;;;;;;;1.67;0.73;;;;;;;12.41;100.00;99145.84;5094827;28;20593;-43
2023/11/06 03:47:48;;;;;;;5.05;0.93;;;;;;;12.39;100.00;99135.28;5094691;28;20048;-42
2023/11/06 03:50:18;;;;;;;1.52;0.60;;;;;;;12.41;100.00;99129.78;5094558;28;20256;-43
2023/11/06 03:52:47;;;;;;;1.95;0.80;;;;;;;12.33;100.00;99136.63;5094252;28;20047;-43
2023/11/06 03:55:15;;;;;;;1.65;0.70;;;;;;;12.38;100.00;99138.94;5094138;28;20481;-42
2023/11/06 03:57:44;;;;;;;2.35;0.63;;;;;;;12.38;100.00;99143.44;5094363;28;20048;-43
2023/11/06 04:00:12;;;;;;;1.85;0.77;;;;;;;12.42;100.00;99150.19;5094397;28;20131;-44
2023/11/06 04:02:40;;;;;;;1.70;0.70;;;;;;;12.42;100.00;99161.75;5094140;28;20090;-43
2023/11/06 04:05:09;;;;;;;1.45;0.70;;;;;;;12.43;100.00;99171.47;5094129;28;20048;-43
2023/11/06 04:07:38;;;;;;;3.58;0.80;;;;;;;12.40;100.00;99179.75;5093989;28;20123;-45
2023/11/06 04:10:08;;;;;;;3.97;0.68;;;;;;;12.35;100.00;99191.81;5093078;28;20051;-43
2023/11/06 04:12:36;;;;;;;3.05;0.88;;;;;;;12.32;100.00;99195.59;5093784;28;20056;-44
2023/11/06 04:15:05;;;;;;;1.38;0.77;;;;;;;12.13;100.00;99192.75;5094103;28;20075;-43
2023/11/06 04:17:34;;;;;;;1.42;0.77;;;;;;;12.08;100.00;99201.16;5094050;28;20079;-43
2023/11/06 04:20:02;;;;;;;1.85;0.82;;;;;;;12.11;100.00;99216.09;5093871;28;20131;-43
2023/11/06 04:22:31;;;;;;;2.45;1.10;;;;;;;12.05;100.00;99222.78;5093493;28;20075;-45
2023/11/06 04:25:01;;;;;;;2.30;0.95;;;;;;;11.88;100.00;99210.84;5093898;28;20059;-44
2023/11/06 04:27:29;;;;;;;2.63;1.13;;;;;;;11.81;100.00;99225.66;5094027;28;20165;-43
2023/11/06 04:29:57;;;;;;;1.88;0.90;;;;;;;11.80;100.00;99229.31;5093483;28;20414;-43
2023/11/06 04:32:26;;;;;;;4.03;1.08;;;;;;;11.76;100.00;99230.47;5093628;28;20047;-43
2023/11/06 04:34:54;;;;;;;4.10;0.93;;;;;;;11.75;100.00;99237.66;5093603;28;20056;-44
2023/11/06 04:37:23;;;;;;;3.42;0.93;;;;;;;11.81;100.00;99254.19;5093792;28;20071;-42
2023/11/06 04:39:51;;;;;;;2.95;1.20;;;;;;;11.73;100.00;99255.63;5093886;28;20079;-43
2023/11/06 04:42:21;;;;;;;3.88;0.98;;;;;;;11.63;100.00;99248.47;5093676;28;20044;-44
2023/11/06 04:44:50;;;;;;;3.20;1.15;;;;;;;11.62;100.00;99261.00;5093879;28;20390;-43
2023/11/06 04:47:18;;;;;;;2.30;0.98;;;;;;;11.66;100.00;99259.75;5093635;28;20083;-43
2023/11/06 04:49:46;;;;;;;2.20;0.90;;;;;;;11.74;100.00;99268.00;5093505;28;20454;-44
2023/11/06 04:52:15;;;;;;;2.15;0.90;;;;;;;11.73;100.00;99277.00;5093450;28;20056;-44
2023/11/06 04:54:43;;;;;;;2.28;1.10;;;;;;;11.71;100.00;99283.44;5093088;28;20040;-42
2023/11/06 04:57:12;;;;;;;4.28;1.10;;;;;;;11.65;100.00;99284.78;5093172;28;20149;-43
2023/11/06 04:59:44;;;;;;;6.00;1.27;;;;;;;11.68;100.00;99273.88;5093044;28;20048;-42
2023/11/06 05:02:14;;;;;;;4.00;1.15;;;;;;;11.71;100.00;99294.13;5092892;28;20050;-43
2023/11/06 05:04:44;;;;;;;3.15;1.20;;;;;;;11.73;100.00;99298.38;5093261;28;20518;-42
2023/11/06 05:07:12;;;;;;;4.35;0.80;;;;;;;11.80;100.00;99298.78;5093044;28;20127;-45
2023/11/06 05:09:42;;;;;;;2.60;1.02;;;;;;;11.83;100.00;99292.31;5093080;28;20044;-43
2023/11/06 05:12:11;;;;;;;4.15;1.48;;;;;;;11.78;100.00;99295.34;5092970;28;20052;-45
2023/11/06 05:14:39;;;;;;;5.15;1.33;;;;;;;11.71;100.00;99310.16;5092803;28;20049;-44
2023/11/06 05:17:10;;;;;;;2.97;1.17;;;;;;;11.69;100.00;99309.44;5092819;28;20109;-44
2023/11/06 05:19:41;;;;;;;3.40;1.38;;;;;;;11.64;100.00;99314.28;5093043;28;20052;-43
2023/11/06 05:22:10;;;;;;;4.43;1.45;;;;;;;11.62;100.00;99324.25;5092409;28;20473;-45
2023/11/06 05:24:44;;;;;;;5.40;1.40;;;;;;;11.63;100.00;99329.47;5092828;28;20044;-45
2023/11/06 05:27:13;;;;;;;3.92;1.55;;;;;;;11.64;100.00;99330.31;5092435;28;20051;-43
2023/11/06 05:29:41;;;;;;;4.30;1.20;;;;;;;11.66;100.00;99341.72;5092700;28;20127;-43
2023/11/06 05:32:11;;;;;;;6.43;1.80;;;;;;;11.68;100.00;99337.13;5092501;28;20099;-46
2023/11/06 05:34:40;;;;;;;3.42;1.10;;;;;;;11.66;100.00;99339.03;5092430;28;20407;-43
2023/11/06 05:37:09;;;;;;;3.97;1.40;;;;;;;11.65;100.00;99324.00;5092404;28;20044;-42
2023/11/06 05:39:39;;;;;;;2.50;1.15;;;;;;;11.81;100.00;99329.00;5092116;28;20040;-43
2023/11/06 05:42:08;;;;;;;4.55;1.50;;;;;;;11.80;100.00;99341.53;5092211;28;20047;-43
2023/11/06 05:44:41;;;;;;;3.63;1.30;;;;;;;11.90;100.00;99355.84;5092195;28;20460;-44
2023/11/06 05:47:11;;;;;;;4.43;1.38;;;;;;;11.91;100.00;99364.72;5092363;28;20044;-45
2023/11/06 05:49:42;;;;;;;4.05;1.60;;;;;;;11.89;100.00;99362.16;5092053;28;20052;-43
2023/11/06 05:52:13;;;;;;;4.03;1.73;;;;;;;11.84;100.00;99371.50;5092089;28;20044;-43
2023/11/06 05:54:42;;;;;;;5.32;1.77;;;;;;;11.91;100.00;99370.06;5092020;28;20078;-43
2023/11/06 05:57:10;;;;;;;3.75;1.40;;;;;;;11.93;100.00;99382.31;5092382;28;20040;-43
2023/11/06 05:59:39;;;;;;;4.22;1.48;;;;;;;12.00;100.00;99369.31;5091942;28;20044;-43
2023/11/06 06:02:08;;;;;;;3.72;1.30;;;;;;;11.99;100.00;99381.84;5091683;28;20083;-43
2023/11/06 06:04:38;;;;;;;8.25;3.08;;;;;;;12.03;100.00;99385.97;5091744;28;20044;-44
2023/11/06 06:07:07;;;;;;;5.53;1.70;;;;;;;12.07;100.00;99380.38;5091650;28;20059;-43
2023/11/06 06:09:36;;;;;;;3.47;1.30;;;;;;;12.08;100.00;99393.63;5091818;28;20052;-43
2023/11/06 06:12:05;;;;;;;4.32;1.65;;;;;;;12.24;100.00;99398.56;5091595;28;20477;-46
2023/11/06 06:14:33;;;;;;;5.22;1.65;;;;;;;12.22;100.00;99387.16;5091652;28;20058;-43
2023/11/06 06:17:02;;;;;;;6.43;1.60;;;;;;;12.15;100.00;99392.13;5091550;28;20063;-43
2023/11/06 06:19:31;;;;;;;6.22;1.90;;;;;;;12.11;100.00;99395.19;5091738;28;20040;-43
2023/11/06 06:22:01;;;;;;;5.20;1.45;;;;;;;12.12;100.00;99411.09;5091714;28;20126;-44
2023/11/06 06:24:29;;;;;;;3.88;1.70;;;;;;;12.09;100.00;99415.84;5091654;28;20133;-42
2023/11/06 06:26:58;;;;;;;5.07;2.08;;;;;;;12.18;100.00;99423.16;5091700;28;20604;-44
2023/11/06 06:29:27;;;;;;;5.28;1.65;;;;;;;12.10;100.00;99423.75;5091641;28;20411;-42
2023/11/06 06:31:56;;;;;;;4.47;1.65;;;;;;;12.16;100.00;99428.63;5091619;28;20134;-44
2023/11/06 06:34:25;;;;;;;4.40;1.60;;;;;;;12.27;100.00;99430.44;5090921;28;20048;-45
2023/11/06 06:36:54;;;;;;;4.28;1.73;;;;;;;12.20;100.00;99430.06;5091756;28;20113;-43
2023/11/06 06:39:24;;;;;;;3.63;1.45;;;;;;;12.17;100.00;99440.16;5091540;28;20072;-45
2023/11/06 06:41:52;;;;;;;4.53;1.95;;;;;;;12.22;100.00;99456.69;5091020;28;20047;-43
2023/11/06 06:44:20;;;;;;;3.80;1.85;;;;;;;12.09;100.00;99443.44;5091041;28;20050;-43
2023/11/06 06:46:49;;;;;;;3.08;1.60;;;;;;;12.20;100.00;99455.94;5090860;28;20071;-43
2023/11/06 06:49:17;;;;;;;6.55;1.80;;;;;;;12.23;100.00;99458.38;5091150;28;20055;-43
2023/11/06 06:51:46;;;;;;;5.50;1.50;;;;;;;12.37;100.00;99463.50;5091001;28;20052;-42
2023/11/06 06:54:14;;;;;;;3.75;1.52;;;;;;;12.35;100.00;99453.84;5090598;28;20382;-42
2023/11/06 06:56:45;;;;;;;3.42;1.67;;;;;;;12.37;100.00;99452.78;5090523;28;20044;-42
2023/11/06 06:59:13;;;;;;;3.70;1.80;;;;;;;12.46;100.00;99460.06;5090854;28;20408;-43
2023/11/06 07:01:42;;;;;;;4.63;1.77;;;;;;;12.53;100.00;99468.44;5091030;28;20417;-42
2023/11/06 07:04:11;;;;;;;5.65;1.80;;;;;;;12.76;100.00;99469.25;5090774;28;20044;-43
2023/11/06 07:06:39;;;;;;;3.97;1.85;;;;;;;12.78;100.00;99478.88;5090746;28;20080;-49
2023/11/06 07:09:08;;;;;;;5.05;2.30;;;;;;;12.89;100.00;99488.69;5090892;28;20450;-43
2023/11/06 07:11:36;;;;;;;5.53;1.80;;;;;;;12.89;100.00;99496.72;5090861;28;20044;-43
2023/11/06 07:14:06;;;;;;;5.20;1.65;;;;;;;12.80;100.00;99508.16;5090813;28;20048;-43
2023/11/06 07:16:34;;;;;;;5.47;1.98;;;;;;;12.90;100.00;99507.28;5090683;28;20560;-43
2023/11/06 07:19:02;;;;;;;7.88;1.92;;;;;;;13.02;100.00;99502.75;5090927;28;20055;-41
2023/11/06 07:21:32;;;;;;;4.82;1.60;;;;;;;12.94;100.00;99505.25;5090788;28;20073;-43
2023/11/06 07:24:00;;;;;;;3.22;1.50;;;;;;;12.78;100.00;99515.47;5090394;28;20044;-41
2023/11/06 07:26:29;;;;;;;2.97;1.30;;;;;;;13.10;100.00;99523.56;5090551;28;20052;-44
2023/11/06 07:28:57;;;;;;;3.58;1.30;;;;;;;13.29;100.00;99525.59;5090797;28;20048;-46
2023/11/06 07:31:27;;;;;;;2.45;1.10;;;;;;;13.39;100.00;99519.34;5090691;28;20085;-43
2023/11/06 07:33:56;;;;;;;4.28;1.60;;;;;;;13.41;100.00;99525.44;5090150;28;20044;-42
2023/11/06 07:36:24;;;;;;;2.22;1.15;;;;;;;13.57;100.00;99530.34;5089765;28;20051;-43
2023/11/06 07:38:53;;;;;;;5.60;1.30;;;;;;;13.70;100.00;99541.75;5089932;28;20044;-43
2023/11/06 07:41:21;;;;;;;4.07;1.40;;;;;;;13.76;100.00;99540.38;5087172;28;20564;-43
2023/11/06 07:43:49;;;;;;;4.35;1.20;;;;;;;13.85;100.00;99554.84;5090122;28;20081;-42
2023/11/06 07:46:19;;;;;;;5.57;1.60;;;;;;;13.96;100.00;99558.28;5092338;28;20519;-43
2023/11/06 07:48:49;;;;;;;3.10;1.35;;;;;;;14.06;100.00;99565.56;5093892;28;20044;-45
2023/11/06 07:51:18;;;;;;;3.50;1.33;;;;;;;14.14;100.00;99566.59;5093827;28;20397;-43
2023/11/06 07:53:46;;;;;;;3.85;1.35;;;;;;;14.23;100.00;99559.59;5093806;28;20052;-44
2023/11/06 07:56:17;;;;;;;7.35;1.65;;;;;;;14.22;100.00;99560.59;5093917;28;20063;-43
2023/11/06 07:58:46;;;;;;;3.00;1.40;;;;;;;14.29;100.00;99565.31;5093883;28;20051;-42
2023/11/06 08:01:17;;;;;;;4.60;1.50;;;;;;;14.37;100.00;99567.28;5094163;28;20048;-42
2023/11/06 08:03:45;;;;;;;5.18;1.90;;;;;;;14.43;100.00;99564.09;5093596;28;20413;-42
2023/11/06 08:06:17;;;;;;;4.38;1.85;;;;;;;14.47;100.00;99568.22;5093609;28;20106;-44
2023/11/06 08:08:49;;;;;;;5.30;2.00;;;;;;;14.51;100.00;99567.00;5093426;28;20047;-42
2023/11/06 08:11:20;;;;;;;5.22;2.08;;;;;;;14.52;100.00;99575.91;5093544;28;20058;-43
2023/11/06 08:13:48;;;;;;;5.70;2.30;;;;;;;14.60;100.00;99576.94;5093695;28;20083;-44
2023/11/06 08:16:17;;;;;;;6.78;2.45;;;;;;;14.56;100.00;99580.00;5093746;28;20101;-43
2023/11/06 08:18:45;;;;;;;4.35;2.00;;;;;;;14.60;100.00;99589.50;5093497;28;20040;-44
2023/11/06 08:21:13;;;;;;;5.80;2.35;;;;;;;14.63;100.00;99588.38;5093896;28;20067;-45
2023/11/06 08:23:44;;;;;;;9.88;2.63;;;;;;;14.66;100.00;99602.38;5093332;28;20059;-44
2023/11/06 08:26:12;;;;;;;6.70;1.90;;;;;;;14.67;100.00;99612.16;5093556;28;20109;-42
2023/11/06 08:28:40;;;;;;;6.45;1.50;;;;;;;14.70;100.00;99617.22;5093354;28;20477;-43
2023/11/06 08:31:09;;;;;;;3.00;1.40;;;;;;;14.81;100.00;99617.13;5093248;28;20497;-43
2023/11/06 08:33:37;;;;;;;3.17;1.17;;;;;;;14.88;100.00;99631.75;5093554;28;20127;-43
2023/11/06 08:36:07;;;;;;;2.47;0.80;;;;;;;14.96;100.00;99616.75;5093298;28;20056;-44
2023/11/06 08:38:35;;;;;;;4.95;1.50;;;;;;;15.03;100.00;99624.16;5093346;28;20131;-44
2023/11/06 08:41:07;;;;;;;4.35;1.40;;;;;;;15.17;100.00;99626.47;5093003;28;20055;-42
2023/11/06 08:43:36;;;;;;;4.13;1.33;;;;;;;15.17;100.00;99631.00;5092858;28;20193;-42
2023/11/06 08:46:05;;;;;;;3.40;1.50;;;;;;;15.31;100.00;99635.97;5093198;28;20052;-43
2023/11/06 08:48:33;;;;;;;4.18;2.00;;;;;;;15.39;100.00;99630.78;5093352;28;20086;-45
2023/11/06 08:51:02;;;;;;;3.00;1.70;;;;;;;15.38;100.00;99639.81;5093083;28;20047;-44
2023/11/06 08:53:30;;;;;;;3.63;1.33;;;;;;;15.42;100.00;99646.59;5093131;28;20044;-43
2023/11/06 08:55:59;;;;;;;4.22;1.48;;;;;;;15.52;100.00;99645.78;5092495;28;20044;-44
2023/11/06 08:58:28;;;;;;;4.32;1.30;;;;;;;15.62;100.00;99657.44;5092574;28;20048;-44
2023/11/06 09:01:00;;;;;;;5.80;1.60;;;;;;;15.64;100.00;99655.47;5092729;28;20440;-43
2023/11/06 09:03:28;;;;;;;3.17;0.90;;;;;;;15.62;98.13;99660.13;5092859;28;20048;-44
2023/11/06 09:05:57;;;;;;;2.88;0.90;;;;;;;15.59;97.69;99653.16;5092791;28;20048;-43
2023/11/06 09:08:25;;;;;;;3.83;0.88;;;;;;;15.53;96.12;99658.22;5092533;28;20082;-45
2023/11/06 09:10:53;;;;;;;2.78;0.70;;;;;;;15.52;93.94;99668.13;5092428;28;20109;-46
2023/11/06 09:13:22;;;;;;;3.45;0.95;;;;;;;15.66;93.02;99665.09;5092733;28;20040;-43
2023/11/06 09:15:51;;;;;;;3.08;0.73;;;;;;;15.74;93.41;99664.41;5092623;28;20477;-42
2023/11/06 09:18:19;;;;;;;2.95;0.77;;;;;;;15.79;92.19;99672.03;5092704;28;20048;-43
2023/11/06 09:20:48;;;;;;;5.18;1.10;;;;;;;15.92;93.53;99678.00;5092382;28;20048;-44
2023/11/06 09:23:16;;;;;;;2.58;0.98;;;;;;;16.06;95.28;99677.59;5091985;28;20052;-44
2023/11/06 09:25:45;;;;;;;6.35;1.05;;;;;;;16.11;96.58;99685.22;5092167;28;20047;-44
2023/11/06 09:28:13;;;;;;;2.10;0.80;;;;;;;16.10;90.47;99683.53;5092237;28;20044;-43
2023/11/06 09:30:43;;;;;;;4.00;0.95;;;;;;;16.19;90.29;99698.81;5092145;28;20504;-44
2023/11/06 09:33:13;;;;;;;3.20;1.25;;;;;;;16.16;97.00;99705.34;5092369;28;20054;-44
2023/11/06 09:35:41;;;;;;;3.17;1.17;;;;;;;16.11;96.28;99702.22;5092294;28;20047;-44
2023/11/06 09:38:10;;;;;;;7.60;1.27;;;;;;;16.19;97.22;99712.28;5091993;28;20144;-42
2023/11/06 09:40:39;;;;;;;4.05;1.23;;;;;;;16.24;100.00;99707.34;5092293;28;20059;-43
2023/11/06 09:43:07;;;;;;;3.30;1.30;;;;;;;16.21;100.00;99713.84;5092255;28;20097;-46
2023/11/06 09:45:36;;;;;;;3.45;1.10;;;;;;;16.17;99.88;99709.72;5091953;28;20137;-44
2023/11/06 09:48:08;;;;;;;2.25;1.17;;;;;;;16.24;98.94;99715.41;5091979;28;20052;-45
2023/11/06 09:50:42;;;;;;;2.95;1.27;;;;;;;16.08;100.00;99712.41;5091745;28;20079;-43
2023/11/06 09:53:11;;;;;;;3.35;1.08;;;;;;;16.03;100.00;99724.47;5091995;28;20055;-43
2023/11/06 09:55:42;;;;;;;3.38;1.35;;;;;;;16.14;100.00;99723.47;5092144;28;20127;-44
2023/11/06 09:58:11;;;;;;;3.38;1.30;;;;;;;16.24;100.00;99715.41;5092407;28;20044;-44
2023/11/06 10:00:40;;;;;;;3.00;1.10;;;;;;;16.22;100.00;99723.63;5092279;28;20079;-44
2023/11/06 10:03:08;;;;;;;3.08;1.10;;;;;;;16.27;100.00;99728.56;5092067;28;20044;-44
2023/11/06 10:05:38;;;;;;;4.65;1.27;;;;;;;16.18;100.00;99730.25;5092289;28;20048;-44
2023/11/06 10:08:07;;;;;;;5.15;1.20;;;;;;;16.08;100.00;99728.56;5091297;28;20139;-44
2023/11/06 10:10:38;;;;;;;4.45;1.40;;;;;;;15.99;100.00;99732.94;5091887;28;20048;-45
2023/11/06 10:13:10;;;;;;;4.00;1.33;;;;;;;15.99;100.00;99736.47;5091632;28;20488;-43
2023/11/06 10:15:39;;;;;;;3.25;1.10;;;;;;;16.01;100.00;99733.63;5091858;28;20044;-44
2023/11/06 10:18:15;;;;;;;3.40;0.98;;;;;;;15.96;100.00;99736.75;5091315;28;20508;-43
2023/11/06 10:20:48;;;;;;;4.35;1.20;;;;;;;16.03;100.00;99732.53;5091822;28;20047;-43
2023/11/06 10:23:27;;;;;;;2.65;1.20;;;;;;;16.00;99.41;99731.94;5091366;28;20052;-43
2023/11/06 10:25:57;;;;;;;3.95;1.13;;;;;;;15.89;97.98;99730.22;5091423;28;20044;-43
2023/11/06 10:28:25;;;;;;;4.47;1.20;;;;;;;15.85;94.96;99736.88;5091413;28;20048;-44
2023/11/06 10:30:54;;;;;;;3.42;1.00;;;;;;;15.92;96.76;99735.34;5091644;28;20044;-43
2023/11/06 10:33:23;;;;;;;2.80;1.10;;;;;;;15.93;98.77;99734.34;5091601;28;20048;-44
2023/11/06 10:35:53;;;;;;;2.35;1.05;;;;;;;15.86;97.03;99735.88;5091318;28;20108;-44
2023/11/06 10:38:33;;;;;;;4.85;1.25;;;;;;;15.81;94.69;99735.44;5091316;28;20071;-43
2023/11/06 10:41:15;;;;;;;4.30;1.30;;;;;;;15.98;93.52;99729.41;5091070;28;20217;-43
2023/11/06 10:43:44;;;;;;;3.80;1.20;;;;;;;16.12;93.76;99735.38;5091473;28;20044;-43
2023/11/06 10:46:30;;;;;;;;;;;;;;;16.29;90.54;99732.81;5091692;28;20072;-45
2023/11/06 10:49:07;;;;;;;2.88;0.85;;;;;;;16.45;92.19;99737.63;5091094;28;19959;-43
2023/11/06 10:51:39;;;;;;;2.47;0.90;;;;;;;16.53;91.71;99743.16;5091029;28;20117;-43
2023/11/06 10:54:09;;;;;;;2.63;0.90;;;;;;;16.66;91.36;99745.56;5091326;28;20048;-43
2023/11/06 10:56:37;;;;;;;5.57;1.17;;;;;;;16.67;90.75;99752.63;5090949;28;20052;-43
2023/11/06 10:59:07;;;;;;;4.43;1.70;;;;;;;16.78;88.11;99754.34;5091026;28;20044;-44
2023/11/06 11:01:38;;;;;;;4.03;1.33;;;;;;;16.81;88.08;99756.78;5090887;28;20056;-45
2023/11/06 11:04:08;;;;;;;2.78;1.08;;;;;;;16.80;90.35;99753.25;5090686;28;20048;-44
2023/11/06 11:06:40;;;;;;;3.03;1.02;;;;;;;16.71;89.77;99753.25;5091033;28;20044;-43
2023/11/06 11:09:11;;;;;;;4.20;0.90;;;;;;;16.52;90.39;99752.25;5090439;28;20335;-44
2023/11/06 11:11:40;;;;;;;4.72;1.02;;;;;;;16.47;91.74;99753.66;5090314;28;20280;-43
2023/11/06 11:14:11;;;;;;;2.40;1.30;;;;;;;16.41;94.28;99752.38;5090390;28;20416;-43
2023/11/06 11:16:41;;;;;;;2.50;1.00;;;;;;;16.34;94.16;99755.78;5090107;28;20198;-43
2023/11/06 11:19:23;;;;;;;3.33;1.02;;;;;;;16.57;93.07;99747.25;5091388;28;20548;-44
2023/11/06 11:22:04;;;;;;;1.95;0.85;;;;;;;16.70;92.67;99755.09;5094161;28;20784;-43
2023/11/06 11:24:50;;;;;;;4.10;1.17;;;;;;;16.82;91.93;99745.88;5094355;28;20052;-45
2023/11/06 11:27:21;;;;;;;4.35;1.60;;;;;;;16.85;91.46;99742.88;5095030;28;20044;-43
2023/11/06 11:30:14;;;;;;;3.13;1.20;;;;;;;16.89;89.06;99751.53;5095804;28;20079;-43
2023/11/06 11:32:51;;;;;;;2.63;1.23;;;;;;;16.93;92.64;99747.53;5095692;28;20048;-46
2023/11/06 11:35:49;;;;;;;3.60;1.23;;;;;;;16.93;89.17;99757.47;5095253;28;20497;-43
2023/11/06 11:38:32;;;;;;;2.85;1.13;;;;;;;16.81;89.70;99759.47;5095344;28;20124;-45